Iron Bill — V7KJ9 — position and weather

sailwx.info

Track history (hours):
 
Tides and Currents Weather Stations Pressure Air Temp Water Temp Dewpoint Dewpoint Depression Visibility Wind Speed Wind Dir Waves Ship Positions

Iron Bill

Last reported at 2014-Jul-10 11:33 UTC. Time now 2014-Jul-22 21:37 UTC.
Position N 35°10' E 123°60'.
Warning: this ship's position is 12 days out of date.

Length 229 m; draft 6.5 m.

Type: Cargo ship. MMSI: 538002630.

Date/timePositionNaut miles runAvg speedWind from/ knotsBaromVisibWave heightAir tempDewpointWater temp
2014-Jul-10 11:33N 35°10' E 123°60'9411.5
2014-Jul-10 03:19N 36°44' E 124°00'912.0
2014-Jul-10 02:33N 36°53' E 123°57'1313.0
2014-Jul-10 01:33N 37°04' E 123°48'1512.8
2014-Jul-10 00:24N 37°16' E 123°38'1112.4
2014-Jul-09 23:32N 37°25' E 123°30'1212.1
2014-Jul-09 22:33N 37°35' E 123°21'1111.4
2014-Jul-09 21:33N 37°44' E 123°13'1111.2
2014-Jul-09 20:33N 37°54' E 123°05'7011.6
2014-Jul-09 14:29N 38°49' E 122°10'2 2.1
2014-Jul-09 13:30N 38°51' E 122°08'8 7.5
2014-Jul-09 12:29N 38°50' E 121°59'9 9.7
2014-Jul-09 11:32N 38°51' E 121°47'6 6.6
2014-Jul-09 10:33N 38°57' E 121°48'  
Track history (hours):
 
Tides and Currents Weather Stations Pressure Air Temp Water Temp Dewpoint Dewpoint Depression Visibility Wind Speed Wind Dir Waves Ship Positions

Iron Bill

Last reported at 2014-Jul-10 11:33 UTC. Time now 2014-Jul-22 21:37 UTC.
Position N 35°10' E 123°60'.
Warning: this ship's position is 12 days out of date.

Length 229 m; draft 6.5 m.

Type: Cargo ship. MMSI: 538002630.

Date/timePositionNaut miles runAvg speedWind from/ knotsBaromVisibWave heightAir tempDewpointWater temp
2014-Jul-10 11:33N 35°10' E 123°60'9411.5
2014-Jul-10 03:19N 36°44' E 124°00'912.0
2014-Jul-10 02:33N 36°53' E 123°57'1313.0
2014-Jul-10 01:33N 37°04' E 123°48'1512.8
2014-Jul-10 00:24N 37°16' E 123°38'1112.4
2014-Jul-09 23:32N 37°25' E 123°30'1212.1
2014-Jul-09 22:33N 37°35' E 123°21'1111.4
2014-Jul-09 21:33N 37°44' E 123°13'1111.2
2014-Jul-09 20:33N 37°54' E 123°05'7011.6
2014-Jul-09 14:29N 38°49' E 122°10'2 2.1
2014-Jul-09 13:30N 38°51' E 122°08'8 7.5
2014-Jul-09 12:29N 38°50' E 121°59'9 9.7
2014-Jul-09 11:32N 38°51' E 121°47'6 6.6
2014-Jul-09 10:33N 38°57' E 121°48'  

Dump ship's entire track history